Terminal Aerodrome Forecast
Issued by NWS

Home | Current Version | Previous Version | Graphics & Text | Print | Product List | Glossary On
Versions: 1 2 3 4 5 6 7 8 9 10 11 12 13 14 15 16 17 18
215
FTUS41 KCLE 231234 AAA
TAFFDY
TAF AMD
KFDY 231234Z 2313/2412 22011KT P6SM SCT018
      TEMPO 2313/2317 BKN018
     FM231700 26008KT P6SM BKN030
     FM232200 33006KT P6SM BKN035
     FM240400 11006KT 3SM -SHRA BR OVC012
     FM241000 18011KT 5SM -SHRA BR SCT012 OVC040=

USA.gov is the U.S. government's official web portal to all federal, state and local government web resources and services.